Active alerts


No alerts


weather webcam more information weather webcam


Thunder radar more information blitzortung!


Rain radar more information rain snow radar


Visit our other weather sites:

Template documentation
and downloads

And another site


Nearby METAR Reports

   
EBBR - Brussels International Airport, Belgium
Distance from station: W 9 mi
Updated: Dec 19 2018 4:20 am
Mostly Cloudy  
Mostly Cloudy  
   Wind: SSW 11.5 mph
Wind: SSW 11.5 mph
Temperature: 48.2°F
Wind Chill: 42.8°F
Dew Point: 42.8°F
Humidity: 82%
Barometer: 29.85 inHg
Clouds: Mostly Cloudy
Visibility: More than 6 mi
Cloud details: Few Clouds 1600 ft,
Mostly Cloudy 2000 ft
EBBR 191020Z 20010KT 9999 FEW016 BKN020 09/06 Q1011 NOSIG
EBBE - Beauvechain (Bevekom), Belgium
Distance from station: SSE 10 mi
Updated: Dec 19 2018 4:25 am
Mostly Cloudy  
Mostly Cloudy  
   Wind: SSW 16.1 mph
Wind: SSW 16.1 mph
Temperature: 48.2°F
Wind Chill: 42.8°F
Dew Point: 41°F
Humidity: 76%
Barometer: 29.85 inHg
Clouds: Mostly Cloudy
Visibility: More than 6 mi
Cloud details: Partly Cloudy 1500 ft,
Mostly Cloudy 1800 ft
EBBE 191025Z 20014KT 9999 SCT015 BKN018 09/05 Q1011 WHT WHT TEMPO GRN
EBDT - Schaffen, Belgium
Distance from station: ENE 18 mi
Updated: Dec 19 2018 4:25 am
Mostly Cloudy  
Mostly Cloudy  
   Wind: South 10.4 mph
Wind: South 10.4 mph
Temperature: 48.2°F
Wind Chill: 44.6°F
Dew Point: 42.8°F
Humidity: 82%
Barometer: 29.85 inHg
Clouds: Mostly Cloudy
Visibility: More than 6 mi
Cloud details: Few Clouds 1700 ft,
Mostly Cloudy 2000 ft
EBDT 191025Z AUTO 19009KT 9999 FEW017/// BKN020/// 09/06 Q1011 WHT
EBAW - Antwerp/Deurne, Belgium
Distance from station: NNW 23 mi
Updated: Dec 19 2018 4:20 am
Mostly Cloudy  
Mostly Cloudy  
   Wind: SSW 11.5 mph
Wind: SSW 11.5 mph
Temperature: 48.2°F
Wind Chill: 42.8°F
Dew Point: 42.8°F
Humidity: 82%
Barometer: 29.85 inHg
Clouds: Mostly Cloudy
Visibility: More than 6 mi
Cloud details: Partly Cloudy 1700 ft,
Mostly Cloudy 2100 ft
EBAW 191020Z 20010KT 9999 SCT017 BKN021 09/06 Q1011 NOSIG
EBCI - Charleroi/Gosselies, Belgium
Distance from station: SSW 32 mi
Updated: Dec 19 2018 4:20 am
Mostly Cloudy  
Mostly Cloudy  
   Wind: SSW 16.1 mph
Wind: SSW 16.1 mph
Temperature: 46.4°F
Wind Chill: 39.2°F
Dew Point: 42.8°F
Humidity: 87%
Barometer: 29.88 inHg
Clouds: Mostly Cloudy
Visibility: More than 6 mi
Cloud details: Few Clouds 800 ft,
Mostly Cloudy 1100 ft
EBCI 191020Z 20014KT 9999 FEW008 BKN011 08/06 Q1012 NOSIG
EBLG - Bierset/Liege, Belgium
Distance from station: ESE 38 mi
Updated: Dec 19 2018 4:20 am
Mostly Cloudy  
Mostly Cloudy  
   Wind: South 15 mph
Wind: South 15 mph
Temperature: 46.4°F
Wind Chill: 39.2°F
Dew Point: 41°F
Humidity: 82%
Barometer: 29.88 inHg
Clouds: Mostly Cloudy
Visibility: More than 6 mi
Cloud details: Mostly Cloudy 2400 ft
EBLG 191020Z 19013KT 9999 BKN024 08/05 Q1012 NOSIG

Script developed by  Saratoga-weather.org Adapted for the template by  Weerstation Leuven

You find our weather info also at:

Weather Underground

Midwestern Weather Network

Citizen Weather Observer Program (CWOP)

HAMweather, WeatherForYou, PWS Weather

Equipment we use:

Weather-station
Davis VP2

Weather-program
Cumulus

Davis VP2

Cumulus